Time;durP1;ratioP1;P1;durP2;ratioP2;P2;SDS_P1;SDS_P2;PMS_P1;PMS_P2;Temp;Humidity;BMP_temperature;BMP_pressure;BME280_temperature;BME280_humidity;BME280_pressure;Samples;Min_cycle;Max_cycle;Signal;HPM_P1;HPM_P2
2022/05/09 00:01:53;;;;;;;;;24.33;24.33;;;;;;;;5120900;27;46075;-77
2022/05/09 00:04:19;;;;;;;;;23.00;22.00;;;;;;;;5122511;27;45288;-76
2022/05/09 00:06:45;;;;;;;;;24.67;24.67;;;;;;;;5122406;27;45344;-77
2022/05/09 00:09:10;;;;;;;;;23.67;23.00;;;;;;;;5122223;27;45438;-77
2022/05/09 00:11:35;;;;;;;;;24.67;21.67;;;;;;;;5122389;27;45327;-77
2022/05/09 00:14:01;;;;;;;;;23.00;22.33;;;;;;;;5122389;27;45333;-76
2022/05/09 00:16:33;;;;;;;;;24.00;24.00;;;;;;;;5104617;27;45927;-77
2022/05/09 00:18:58;;;;;;;;;22.00;21.00;;;;;;;;5101926;27;45261;-78
2022/05/09 00:21:23;;;;;;;;;20.00;20.00;;;;;;;;5101361;27;45320;-77
2022/05/09 00:23:49;;;;;;;;;22.33;21.33;;;;;;;;5101264;27;45178;-77
2022/05/09 00:26:14;;;;;;;;;23.00;23.00;;;;;;;;5101532;27;45378;-77
2022/05/09 00:28:39;;;;;;;;;24.00;23.67;;;;;;;;5100476;27;45266;-77
2022/05/09 00:31:04;;;;;;;;;18.67;18.67;;;;;;;;5101333;27;45353;-77
2022/05/09 00:33:30;;;;;;;;;23.00;23.00;;;;;;;;5100069;27;46707;-77
2022/05/09 00:35:55;;;;;;;;;28.33;26.67;;;;;;;;5101283;27;45336;-77
2022/05/09 00:38:20;;;;;;;;;23.67;23.33;;;;;;;;5101135;27;45335;-77
2022/05/09 00:43:34;;;;;;;;;23.00;22.67;;;;;;;;5101038;27;45333;-77
2022/05/09 00:46:00;;;;;;;;;21.00;20.33;;;;;;;;5100985;27;45376;-77
2022/05/09 00:48:25;;;;;;;;;22.67;22.00;;;;;;;;5101243;27;45940;-77
2022/05/09 00:50:51;;;;;;;;;22.67;22.67;;;;;;;;5101001;27;45374;-77
2022/05/09 00:53:16;;;;;;;;;21.00;20.67;;;;;;;;5100894;27;45267;-77
2022/05/09 00:55:45;;;;;;;;;23.00;22.67;;;;;;;;5100999;27;45454;-77
2022/05/09 00:58:14;;;;;;;;;24.33;23.33;;;;;;;;5101208;27;45344;-76
2022/05/09 01:00:41;;;;;;;;;21.00;21.00;;;;;;;;5100973;27;45318;-77
2022/05/09 01:03:08;;;;;;;;;23.33;23.00;;;;;;;;5100732;27;45922;-77
2022/05/09 01:05:33;;;;;;;;;24.33;24.33;;;;;;;;5100876;27;45264;-77
2022/05/09 01:07:59;;;;;;;;;22.67;21.00;;;;;;;;5099441;27;45255;-77
2022/05/09 01:10:32;;;;;;;;;28.67;25.33;;;;;;;;5099425;27;46378;-77
2022/05/09 01:13:00;;;;;;;;;27.33;26.67;;;;;;;;5100772;27;45295;-77
2022/05/09 01:15:26;;;;;;;;;24.00;23.33;;;;;;;;5108064;27;45246;-77
2022/05/09 01:17:51;;;;;;;;;25.67;23.67;;;;;;;;5121445;27;45420;-77
2022/05/09 01:20:17;;;;;;;;;24.67;24.67;;;;;;;;5121353;27;45407;-77
2022/05/09 01:22:43;;;;;;;;;23.67;23.67;;;;;;;;5120998;27;45383;-77
2022/05/09 01:25:09;;;;;;;;;25.00;24.00;;;;;;;;5121088;27;45348;-77
2022/05/09 01:27:37;;;;;;;;;26.67;26.67;;;;;;;;5120136;27;45338;-77
2022/05/09 01:30:06;;;;;;;;;22.00;20.33;;;;;;;;5119654;27;46052;-77
2022/05/09 01:32:43;;;;;;;;;23.00;21.33;;;;;;;;5120919;27;45477;-77
2022/05/09 01:35:21;;;;;;;;;24.00;22.00;;;;;;;;5120878;27;45311;-77
2022/05/09 01:37:52;;;;;;;;;23.00;21.67;;;;;;;;5120584;27;45287;-77
2022/05/09 01:40:17;;;;;;;;;26.67;23.67;;;;;;;;5120823;27;45286;-77
2022/05/09 01:42:42;;;;;;;;;23.00;23.00;;;;;;;;5119373;27;48332;-76
2022/05/09 01:45:08;;;;;;;;;24.67;23.67;;;;;;;;5119529;27;45341;-77
2022/05/09 01:50:17;;;;;;;;;20.33;19.67;;;;;;;;5120682;27;45299;-76
2022/05/09 01:52:44;;;;;;;;;26.33;24.00;;;;;;;;5120371;27;46120;-76
2022/05/09 01:55:09;;;;;;;;;21.67;21.33;;;;;;;;5120663;27;45345;-76
2022/05/09 01:57:35;;;;;;;;;23.33;22.00;;;;;;;;5120992;27;45434;-77
2022/05/09 02:00:01;;;;;;;;;23.67;22.00;;;;;;;;5120716;27;45348;-76
2022/05/09 02:02:26;;;;;;;;;22.33;21.67;;;;;;;;5119160;27;48153;-77
2022/05/09 02:04:51;;;;;;;;;23.67;20.67;;;;;;;;5120587;27;45300;-77
2022/05/09 02:07:17;;;;;;;;;23.67;23.67;;;;;;;;5120511;27;45234;-77
2022/05/09 02:09:43;;;;;;;;;24.33;21.00;;;;;;;;5120526;27;45523;-77
2022/05/09 02:12:09;;;;;;;;;21.67;19.67;;;;;;;;5120355;27;46201;-77
2022/05/09 02:14:34;;;;;;;;;19.33;19.33;;;;;;;;5120136;27;45301;-77
2022/05/09 02:17:01;;;;;;;;;20.00;19.33;;;;;;;;5100187;27;45512;-77
2022/05/09 02:19:26;;;;;;;;;20.00;18.00;;;;;;;;5102184;27;45320;-76
2022/05/09 02:21:51;;;;;;;;;21.33;20.00;;;;;;;;5103220;27;45297;-77
2022/05/09 02:24:16;;;;;;;;;25.67;23.00;;;;;;;;5103488;27;45293;-77
2022/05/09 02:26:42;;;;;;;;;23.33;21.67;;;;;;;;5103585;27;45428;-77
2022/05/09 02:29:08;;;;;;;;;20.67;19.00;;;;;;;;5103402;27;45534;-77
2022/05/09 02:31:34;;;;;;;;;25.33;22.67;;;;;;;;5103018;27;45829;-76
2022/05/09 02:34:01;;;;;;;;;22.00;22.00;;;;;;;;5103514;27;45356;-77
2022/05/09 02:36:26;;;;;;;;;21.00;20.00;;;;;;;;5103224;27;45373;-76
2022/05/09 02:38:51;;;;;;;;;18.00;17.67;;;;;;;;5103028;27;45354;-77
2022/05/09 02:41:16;;;;;;;;;20.00;19.00;;;;;;;;5103315;27;45306;-77
2022/05/09 02:43:42;;;;;;;;;19.67;18.00;;;;;;;;5103204;27;45382;-76
2022/05/09 02:46:07;;;;;;;;;20.00;20.00;;;;;;;;5101858;27;45182;-77
2022/05/09 02:48:33;;;;;;;;;17.67;17.67;;;;;;;;5103109;27;45329;-77
2022/05/09 02:50:58;;;;;;;;;18.00;18.00;;;;;;;;5103086;27;46433;-76
2022/05/09 02:53:24;;;;;;;;;18.33;17.67;;;;;;;;5102681;27;45269;-76
2022/05/09 02:55:49;;;;;;;;;18.33;18.00;;;;;;;;5102975;27;45253;-77
2022/05/09 02:58:14;;;;;;;;;17.00;17.00;;;;;;;;5102987;27;45487;-77
2022/05/09 03:00:40;;;;;;;;;17.67;17.67;;;;;;;;5102891;27;46117;-77
2022/05/09 03:05:49;;;;;;;;;19.33;18.33;;;;;;;;5102780;27;45349;-77
2022/05/09 03:08:16;;;;;;;;;21.67;20.67;;;;;;;;5101006;27;45992;-77
2022/05/09 03:10:41;;;;;;;;;21.33;20.33;;;;;;;;5102708;27;45979;-76
2022/05/09 03:13:07;;;;;;;;;18.00;18.00;;;;;;;;5102523;27;45243;-76
2022/05/09 03:15:37;;;;;;;;;18.67;18.67;;;;;;;;5111138;27;45353;-76
2022/05/09 03:18:03;;;;;;;;;22.00;22.00;;;;;;;;5123255;27;45641;-77
2022/05/09 03:20:28;;;;;;;;;21.33;21.33;;;;;;;;5123096;27;46094;-77
2022/05/09 03:22:54;;;;;;;;;24.00;22.67;;;;;;;;5121603;27;45221;-76
2022/05/09 03:25:19;;;;;;;;;17.00;16.00;;;;;;;;5121853;27;45238;-77
2022/05/09 03:27:46;;;;;;;;;20.33;19.33;;;;;;;;5123071;27;45455;-77
2022/05/09 03:30:13;;;;;;;;;21.67;21.00;;;;;;;;5121792;27;45629;-76
2022/05/09 03:32:39;;;;;;;;;22.00;22.00;;;;;;;;5122817;27;45432;-77
2022/05/09 03:35:04;;;;;;;;;24.00;23.00;;;;;;;;5122775;27;45276;-77
2022/05/09 03:37:30;;;;;;;;;19.00;19.00;;;;;;;;5121144;27;47098;-77
2022/05/09 03:39:55;;;;;;;;;19.67;19.67;;;;;;;;5121591;27;47118;-77
2022/05/09 03:42:21;;;;;;;;;24.00;23.67;;;;;;;;5122905;27;45344;-76
2022/05/09 03:44:46;;;;;;;;;19.67;19.67;;;;;;;;5122983;27;45344;-77
2022/05/09 03:47:11;;;;;;;;;24.33;21.33;;;;;;;;5122828;27;45413;-77
2022/05/09 03:49:36;;;;;;;;;21.00;20.33;;;;;;;;5122705;27;46149;-76
2022/05/09 03:52:02;;;;;;;;;22.67;21.33;;;;;;;;5122536;27;45324;-76
2022/05/09 03:54:27;;;;;;;;;22.67;22.00;;;;;;;;5122962;27;45216;-77
2022/05/09 03:56:52;;;;;;;;;20.33;19.67;;;;;;;;5121216;27;46966;-76
2022/05/09 03:59:17;;;;;;;;;20.67;20.67;;;;;;;;5122655;27;45273;-77
2022/05/09 04:01:42;;;;;;;;;24.00;22.33;;;;;;;;5122754;27;45355;-77
2022/05/09 04:04:08;;;;;;;;;24.67;23.67;;;;;;;;5122688;27;45237;-77
2022/05/09 04:06:33;;;;;;;;;21.00;21.00;;;;;;;;5122304;27;45480;-77
2022/05/09 04:08:58;;;;;;;;;21.67;21.33;;;;;;;;5120721;27;48205;-76
2022/05/09 04:11:23;;;;;;;;;24.67;24.00;;;;;;;;5122529;27;45233;-77
2022/05/09 04:13:49;;;;;;;;;24.33;22.67;;;;;;;;5122388;27;45235;-76
2022/05/09 04:18:59;;;;;;;;;24.00;24.00;;;;;;;;5101558;27;45275;-76
2022/05/09 04:21:25;;;;;;;;;23.67;22.33;;;;;;;;5101462;27;45238;-77
2022/05/09 04:23:53;;;;;;;;;18.67;17.00;;;;;;;;5101494;27;45363;-77
2022/05/09 04:26:18;;;;;;;;;23.33;22.67;;;;;;;;5101597;27;45577;-76
2022/05/09 04:28:44;;;;;;;;;22.33;22.00;;;;;;;;5101368;27;45941;-77
2022/05/09 04:31:09;;;;;;;;;23.67;23.33;;;;;;;;5101421;27;45372;-76
2022/05/09 04:33:34;;;;;;;;;27.67;26.00;;;;;;;;5101634;27;45482;-77
2022/05/09 04:35:59;;;;;;;;;24.33;22.33;;;;;;;;5099787;27;45602;-77
2022/05/09 04:38:25;;;;;;;;;21.33;21.00;;;;;;;;5101123;27;45366;-76
2022/05/09 04:40:51;;;;;;;;;20.33;19.67;;;;;;;;5101020;27;45257;-77
2022/05/09 04:43:24;;;;;;;;;21.67;21.33;;;;;;;;5101449;27;45266;-77
2022/05/09 04:45:50;;;;;;;;;20.33;19.33;;;;;;;;5101159;27;45393;-77
2022/05/09 04:48:19;;;;;;;;;22.00;22.00;;;;;;;;5099810;27;45325;-77
2022/05/09 04:50:45;;;;;;;;;24.33;24.33;;;;;;;;5101438;27;45675;-76
2022/05/09 04:53:10;;;;;;;;;23.33;22.00;;;;;;;;5100964;27;45368;-76
2022/05/09 04:55:36;;;;;;;;;25.00;23.00;;;;;;;;5101055;27;45320;-76
2022/05/09 04:58:01;;;;;;;;;22.67;20.00;;;;;;;;5100974;27;46217;-77
2022/05/09 05:00:26;;;;;;;;;20.33;19.67;;;;;;;;5101115;27;45360;-76
2022/05/09 05:02:55;;;;;;;;;23.33;22.00;;;;;;;;5099709;27;45295;-76
2022/05/09 05:05:21;;;;;;;;;27.67;24.67;;;;;;;;5101081;27;45283;-77
2022/05/09 05:07:48;;;;;;;;;21.33;19.33;;;;;;;;5100504;27;46319;-76
2022/05/09 05:10:13;;;;;;;;;22.00;20.00;;;;;;;;5100717;27;45382;-77
2022/05/09 05:12:39;;;;;;;;;24.00;23.67;;;;;;;;5100976;27;45368;-76
2022/05/09 05:15:04;;;;;;;;;22.33;22.33;;;;;;;;5103769;27;45869;-76
2022/05/09 05:17:30;;;;;;;;;23.33;20.33;;;;;;;;5121398;27;45421;-76
2022/05/09 05:19:55;;;;;;;;;26.00;25.67;;;;;;;;5120053;27;45357;-77
2022/05/09 05:22:20;;;;;;;;;30.33;25.33;;;;;;;;5121089;27;45306;-77
2022/05/09 05:24:46;;;;;;;;;25.00;22.00;;;;;;;;5119949;27;46250;-76
2022/05/09 05:27:12;;;;;;;;;21.00;21.00;;;;;;;;5116848;27;48038;-77
2022/05/09 05:29:38;;;;;;;;;21.67;21.67;;;;;;;;5087719;27;45483;-77
2022/05/09 05:32:14;;;;;;;;;21.67;19.67;;;;;;;;5079820;27;45378;-78
2022/05/09 05:34:40;;;;;;;;;21.00;19.33;;;;;;;;5079367;27;46222;-77
2022/05/09 05:37:05;;;;;;;;;20.33;20.33;;;;;;;;5088170;27;48136;-76
2022/05/09 05:39:34;;;;;;;;;20.00;18.67;;;;;;;;5080971;27;45328;-77
2022/05/09 05:41:59;;;;;;;;;24.00;22.67;;;;;;;;5080229;27;45242;-77
2022/05/09 05:44:24;;;;;;;;;26.67;25.33;;;;;;;;5079715;28;45208;-77
2022/05/09 05:46:49;;;;;;;;;25.00;23.33;;;;;;;;5079810;27;45290;-77
2022/05/09 05:49:14;;;;;;;;;30.33;26.00;;;;;;;;5079958;27;45236;-77
2022/05/09 05:51:40;;;;;;;;;28.00;25.00;;;;;;;;5078197;28;45294;-78
2022/05/09 05:54:05;;;;;;;;;25.67;23.00;;;;;;;;5078838;27;45367;-77
2022/05/09 05:56:30;;;;;;;;;30.33;27.00;;;;;;;;5079596;27;45445;-77
2022/05/09 05:58:56;;;;;;;;;27.67;27.67;;;;;;;;5079781;27;45303;-77
2022/05/09 06:01:22;;;;;;;;;26.67;23.33;;;;;;;;5079822;27;45298;-77
2022/05/09 06:03:47;;;;;;;;;24.33;20.00;;;;;;;;5079616;27;45465;-77
2022/05/09 06:06:14;;;;;;;;;20.67;18.67;;;;;;;;5079521;27;45309;-76
2022/05/09 06:08:40;;;;;;;;;20.33;19.33;;;;;;;;5078010;28;45352;-77
2022/05/09 06:11:06;;;;;;;;;23.33;21.67;;;;;;;;5080425;27;45284;-77
2022/05/09 06:13:31;;;;;;;;;23.33;21.67;;;;;;;;5080454;27;45468;-77
2022/05/09 06:15:56;;;;;;;;;28.00;26.67;;;;;;;;5103071;27;47065;-79
2022/05/09 06:18:22;;;;;;;;;16.33;16.33;;;;;;;;5121137;27;45372;-76
2022/05/09 06:20:47;;;;;;;;;19.00;18.33;;;;;;;;5120694;27;45237;-75
2022/05/09 06:23:14;;;;;;;;;20.67;19.67;;;;;;;;5120159;27;45372;-76
2022/05/09 06:25:41;;;;;;;;;16.00;16.00;;;;;;;;5120785;27;45303;-76
2022/05/09 06:28:06;;;;;;;;;17.33;16.00;;;;;;;;5119268;27;45733;-76
2022/05/09 06:30:31;;;;;;;;;19.67;17.67;;;;;;;;5120449;27;45390;-77
2022/05/09 06:32:57;;;;;;;;;23.00;19.33;;;;;;;;5120186;27;45339;-77
2022/05/09 06:35:24;;;;;;;;;29.67;29.00;;;;;;;;5095029;27;45469;-76
2022/05/09 06:37:54;;;;;;;;;19.33;17.33;;;;;;;;5100962;27;45379;-77
2022/05/09 06:40:20;;;;;;;;;24.00;22.67;;;;;;;;5101709;27;45210;-77
2022/05/09 06:42:47;;;;;;;;;21.33;21.00;;;;;;;;5100102;27;45307;-76
2022/05/09 06:45:12;;;;;;;;;21.67;20.67;;;;;;;;5099467;27;45938;-76
2022/05/09 06:47:44;;;;;;;;;19.33;19.33;;;;;;;;5099484;27;45361;-76
2022/05/09 06:50:10;;;;;;;;;16.00;15.00;;;;;;;;5098323;27;45641;-76
2022/05/09 06:52:36;;;;;;;;;22.00;20.67;;;;;;;;5099052;27;45367;-76
2022/05/09 06:55:01;;;;;;;;;27.00;25.67;;;;;;;;5099329;27;45357;-76
2022/05/09 06:57:27;;;;;;;;;49.50;41.00;;;;;;;;5099344;27;45373;-76
2022/05/09 06:59:52;;;;;;;;;22.33;21.67;;;;;;;;5099636;27;45369;-76
2022/05/09 07:02:17;;;;;;;;;60.25;48.50;;;;;;;;5097916;27;46031;-76
2022/05/09 07:04:42;;;;;;;;;23.67;23.67;;;;;;;;5100658;27;45332;-76
2022/05/09 07:07:08;;;;;;;;;16.67;16.00;;;;;;;;5102679;27;45466;-76
2022/05/09 07:09:33;;;;;;;;;27.67;25.67;;;;;;;;5101544;27;45396;-77
2022/05/09 07:11:59;;;;;;;;;32.00;28.67;;;;;;;;5101424;27;46208;-76
2022/05/09 07:14:24;;;;;;;;;14.33;14.33;;;;;;;;5102501;27;46547;-76
2022/05/09 07:16:49;;;;;;;;;15.00;14.67;;;;;;;;5121689;27;45276;-76
2022/05/09 07:19:16;;;;;;;;;26.33;24.33;;;;;;;;5121902;27;45387;-76
2022/05/09 07:21:41;;;;;;;;;20.67;18.67;;;;;;;;5122755;27;45450;-76
2022/05/09 07:24:06;;;;;;;;;21.00;21.00;;;;;;;;5123175;27;46550;-76
2022/05/09 07:26:32;;;;;;;;;17.67;15.33;;;;;;;;5123431;27;45218;-76
2022/05/09 07:28:58;;;;;;;;;21.33;21.33;;;;;;;;5123283;27;45250;-76
2022/05/09 07:31:23;;;;;;;;;19.00;18.67;;;;;;;;5087443;27;45458;-77
2022/05/09 07:33:48;;;;;;;;;21.00;19.00;;;;;;;;5081331;27;46228;-76
2022/05/09 07:36:14;;;;;;;;;22.67;21.00;;;;;;;;5080777;27;45417;-77
2022/05/09 07:38:39;;;;;;;;;26.67;24.67;;;;;;;;5080936;27;45404;-76
2022/05/09 07:41:04;;;;;;;;;31.00;25.67;;;;;;;;5081289;27;45656;-76
2022/05/09 07:43:29;;;;;;;;;19.00;18.67;;;;;;;;5081205;27;46288;-76
2022/05/09 07:45:56;;;;;;;;;18.00;17.00;;;;;;;;5082232;27;45259;-76
2022/05/09 07:48:22;;;;;;;;;16.00;16.00;;;;;;;;5089004;27;45382;-76
2022/05/09 07:50:48;;;;;;;;;27.67;24.00;;;;;;;;5092363;27;47388;-77
2022/05/09 07:53:19;;;;;;;;;48.00;39.00;;;;;;;;5098612;27;47012;-77
2022/05/09 07:55:44;;;;;;;;;16.67;16.33;;;;;;;;5085391;27;45984;-78
2022/05/09 07:58:10;;;;;;;;;19.67;18.33;;;;;;;;5083286;27;45435;-76
2022/05/09 08:00:36;;;;;;;;;19.67;19.67;;;;;;;;5085625;27;45302;-77
2022/05/09 08:03:02;;;;;;;;;23.33;21.33;;;;;;;;5089722;27;47411;-77
2022/05/09 08:05:28;;;;;;;;;20.67;18.00;;;;;;;;5081179;27;45504;-76
2022/05/09 08:07:53;;;;;;;;;24.33;23.33;;;;;;;;5081592;27;45460;-77
2022/05/09 08:10:19;;;;;;;;;18.67;18.67;;;;;;;;5099938;27;45365;-77
2022/05/09 08:12:44;;;;;;;;;20.33;20.00;;;;;;;;5080643;27;45262;-77
2022/05/09 08:15:11;;;;;;;;;23.33;22.00;;;;;;;;5097718;27;45420;-76
2022/05/09 08:17:36;;;;;;;;;23.33;21.67;;;;;;;;5089955;27;45455;-76
2022/05/09 08:20:02;;;;;;;;;37.33;33.00;;;;;;;;5101973;27;45364;-76
2022/05/09 08:22:31;;;;;;;;;33.67;30.33;;;;;;;;5101692;27;45793;-76
2022/05/09 08:24:57;;;;;;;;;26.33;22.33;;;;;;;;5101669;27;45376;-77
2022/05/09 08:27:23;;;;;;;;;22.00;20.00;;;;;;;;5102243;27;45318;-77
2022/05/09 08:29:49;;;;;;;;;20.00;18.67;;;;;;;;5102060;27;45478;-77
2022/05/09 08:32:14;;;;;;;;;21.33;19.67;;;;;;;;5102707;27;45841;-77
2022/05/09 08:34:41;;;;;;;;;21.33;21.33;;;;;;;;5101059;27;45320;-76
2022/05/09 08:37:06;;;;;;;;;19.00;18.33;;;;;;;;5101726;27;45260;-77
2022/05/09 08:39:32;;;;;;;;;25.00;24.67;;;;;;;;5102110;27;45278;-77
2022/05/09 08:42:03;;;;;;;;;28.33;26.00;;;;;;;;5084078;27;45273;-77
2022/05/09 08:44:45;;;;;;;;;32.67;28.33;;;;;;;;5088010;27;45361;-79
2022/05/09 08:47:22;;;;;;;;;29.33;28.33;;;;;;;;5101736;27;45338;-79
2022/05/09 08:49:48;;;;;;;;;31.00;27.67;;;;;;;;5099501;27;47440;-78
2022/05/09 08:52:26;;;;;;;;;27.67;24.33;;;;;;;;5100770;27;45516;-77
2022/05/09 08:54:53;;;;;;;;;27.00;25.00;;;;;;;;5100084;27;45344;-76
2022/05/09 08:57:21;;;;;;;;;28.33;26.00;;;;;;;;5101443;27;45305;-80
2022/05/09 08:59:54;;;;;;;;;27.00;24.33;;;;;;;;5099947;27;46046;-79
2022/05/09 09:02:29;;;;;;;;;27.33;25.00;;;;;;;;5083299;27;47328;-78
2022/05/09 09:04:55;;;;;;;;;22.67;22.33;;;;;;;;5080247;27;45181;-77
2022/05/09 09:07:44;;;;;;;;;24.00;23.67;;;;;;;;5098380;27;45392;-80
2022/05/09 09:10:09;;;;;;;;;29.00;27.00;;;;;;;;5106727;27;46666;-77
2022/05/09 09:12:53;;;;;;;;;27.33;25.00;;;;;;;;5113059;27;46403;-79
2022/05/09 09:15:28;;;;;;;;;31.67;28.67;;;;;;;;5113727;27;45475;-78
2022/05/09 09:18:13;;;;;;;;;27.33;26.00;;;;;;;;5119733;27;45445;-79
2022/05/09 09:20:54;;;;;;;;;23.00;22.67;;;;;;;;5082607;27;45757;-80
2022/05/09 09:23:31;;;;;;;;;24.00;24.00;;;;;;;;5092039;27;46325;-79
2022/05/09 09:25:59;;;;;;;;;24.00;23.33;;;;;;;;5091724;27;45294;-80
2022/05/09 09:28:46;;;;;;;;;21.00;19.00;;;;;;;;5093122;27;45416;-79
2022/05/09 09:31:12;;;;;;;;;18.33;18.33;;;;;;;;5095832;27;45266;-79
2022/05/09 09:33:43;;;;;;;;;23.33;22.00;;;;;;;;5096085;27;46156;-79
2022/05/09 09:36:11;;;;;;;;;24.67;24.33;;;;;;;;5095699;27;45482;-79
2022/05/09 09:38:42;;;;;;;;;20.33;18.33;;;;;;;;5106961;27;45309;-80
2022/05/09 09:41:30;;;;;;;;;27.00;23.00;;;;;;;;5102386;27;45487;-80
2022/05/09 09:44:05;;;;;;;;;16.00;16.00;;;;;;;;5116724;27;45540;-80
2022/05/09 09:46:30;;;;;;;;;30.00;25.33;;;;;;;;5111586;27;45463;-81
2022/05/09 09:49:03;;;;;;;;;46.67;36.67;;;;;;;;5099118;27;45420;-80
2022/05/09 09:51:28;;;;;;;;;23.33;22.00;;;;;;;;5105519;27;47307;-82
2022/05/09 09:53:55;;;;;;;;;18.67;18.67;;;;;;;;5105858;27;45416;-80
2022/05/09 09:56:20;;;;;;;;;20.00;20.00;;;;;;;;5099926;27;45644;-81
2022/05/09 09:58:46;;;;;;;;;31.33;29.67;;;;;;;;5103976;27;45251;-80
2022/05/09 10:01:13;;;;;;;;;25.00;23.67;;;;;;;;5097769;27;45259;-81
2022/05/09 10:03:41;;;;;;;;;26.33;25.00;;;;;;;;5087057;27;47001;-80
2022/05/09 10:06:16;;;;;;;;;20.67;19.33;;;;;;;;5081557;27;45491;-80
2022/05/09 10:08:42;;;;;;;;;19.00;18.67;;;;;;;;5081388;28;45514;-82
2022/05/09 10:11:08;;;;;;;;;18.67;16.00;;;;;;;;5077953;28;46117;-79
2022/05/09 10:14:03;;;;;;;;;21.00;19.33;;;;;;;;5087850;27;45415;-81
2022/05/09 10:16:33;;;;;;;;;21.00;19.67;;;;;;;;5092739;27;45440;-80
2022/05/09 10:19:00;;;;;;;;;20.67;19.33;;;;;;;;5105621;27;45356;-79
2022/05/09 10:26:55;;;;;;;;;20.33;20.33;;;;;;;;5109720;27;45264;-80
2022/05/09 10:29:22;;;;;;;;;21.33;20.67;;;;;;;;5110833;27;45416;-79
2022/05/09 10:31:52;;;;;;;;;22.67;21.00;;;;;;;;5111426;27;45482;-79
2022/05/09 10:34:27;;;;;;;;;22.33;21.00;;;;;;;;5114218;27;45498;-78
2022/05/09 10:37:01;;;;;;;;;24.33;21.33;;;;;;;;5112034;27;44754;-78
2022/05/09 10:39:33;;;;;;;;;17.00;17.00;;;;;;;;5090104;27;45309;-80
2022/05/09 10:42:00;;;;;;;;;18.67;18.67;;;;;;;;5092694;28;46312;-80
2022/05/09 10:44:34;;;;;;;;;18.33;18.33;;;;;;;;5091603;27;47530;-79
2022/05/09 10:47:05;;;;;;;;;22.67;20.67;;;;;;;;5100020;27;45397;-78
2022/05/09 10:49:45;;;;;;;;;21.67;21.33;;;;;;;;5098534;27;45306;-79
2022/05/09 10:52:26;;;;;;;;;23.33;23.33;;;;;;;;5098249;27;45316;-80
2022/05/09 10:55:00;;;;;;;;;23.33;22.33;;;;;;;;5100566;27;45481;-78
2022/05/09 10:57:29;;;;;;;;;22.00;20.67;;;;;;;;5094327;27;46557;-79
2022/05/09 11:00:01;;;;;;;;;21.00;21.00;;;;;;;;5094506;27;45448;-78
2022/05/09 11:02:29;;;;;;;;;25.33;24.33;;;;;;;;5088695;27;45440;-78
2022/05/09 11:04:55;;;;;;;;;22.33;22.33;;;;;;;;5092149;28;48291;-78
2022/05/09 11:07:35;;;;;;;;;20.67;20.00;;;;;;;;5098322;27;45556;-78
2022/05/09 11:10:09;;;;;;;;;20.67;19.67;;;;;;;;5107918;27;45277;-78
2022/05/09 11:12:48;;;;;;;;;24.00;24.00;;;;;;;;5103205;27;46459;-78
2022/05/09 11:15:29;;;;;;;;;22.67;21.33;;;;;;;;5103688;27;45402;-78
2022/05/09 11:18:00;;;;;;;;;20.00;19.67;;;;;;;;5109156;27;45366;-78
2022/05/09 11:20:28;;;;;;;;;24.33;23.00;;;;;;;;5090058;27;45309;-80
2022/05/09 11:23:12;;;;;;;;;21.00;21.00;;;;;;;;5104401;27;45249;-81
2022/05/09 11:25:40;;;;;;;;;21.33;21.33;;;;;;;;5086907;27;46270;-78
2022/05/09 11:28:05;;;;;;;;;21.00;21.00;;;;;;;;5081989;27;45254;-78
2022/05/09 11:30:38;;;;;;;;;18.33;18.33;;;;;;;;5081258;28;45647;-79
2022/05/09 11:33:12;;;;;;;;;22.67;22.00;;;;;;;;5082160;27;45353;-78
2022/05/09 11:35:39;;;;;;;;;21.67;20.33;;;;;;;;5081903;27;46648;-79
2022/05/09 11:38:22;;;;;;;;;21.33;21.33;;;;;;;;5080888;27;45305;-79
2022/05/09 11:41:08;;;;;;;;;22.00;19.67;;;;;;;;5084406;27;45349;-79
2022/05/09 11:43:52;;;;;;;;;20.67;20.33;;;;;;;;5091790;27;46146;-79
2022/05/09 11:46:32;;;;;;;;;19.00;18.33;;;;;;;;5085107;27;45386;-79
2022/05/09 11:49:00;;;;;;;;;17.33;17.33;;;;;;;;5081561;27;45445;-78
2022/05/09 11:51:32;;;;;;;;;15.33;15.33;;;;;;;;5091518;27;45402;-78
2022/05/09 11:53:59;;;;;;;;;23.33;23.33;;;;;;;;5094248;27;45392;-78
2022/05/09 11:56:25;;;;;;;;;26.00;23.33;;;;;;;;5080273;27;45334;-77
2022/05/09 11:58:51;;;;;;;;;27.00;26.67;;;;;;;;5085864;27;45213;-78
2022/05/09 12:01:16;;;;;;;;;22.33;21.33;;;;;;;;5101040;27;45318;-80
2022/05/09 12:03:41;;;;;;;;;22.67;22.00;;;;;;;;5101764;27;45306;-79
2022/05/09 12:06:10;;;;;;;;;18.33;18.33;;;;;;;;5101998;27;45323;-78
2022/05/09 12:08:45;;;;;;;;;21.33;20.67;;;;;;;;5085078;27;45413;-78
2022/05/09 12:11:16;;;;;;;;;21.33;20.67;;;;;;;;5101786;27;45387;-78
2022/05/09 12:13:41;;;;;;;;;26.67;25.00;;;;;;;;5101424;27;45300;-78
2022/05/09 12:16:07;;;;;;;;;23.00;23.00;;;;;;;;5114825;27;45575;-78
2022/05/09 12:18:51;;;;;;;;;19.00;18.33;;;;;;;;5120801;27;45335;-77
2022/05/09 12:21:21;;;;;;;;;18.00;17.00;;;;;;;;5098008;27;45372;-78
2022/05/09 12:23:47;;;;;;;;;14.67;14.67;;;;;;;;5080868;27;45422;-78
2022/05/09 12:26:29;;;;;;;;;14.67;14.67;;;;;;;;5080642;28;46850;-79
2022/05/09 12:29:07;;;;;;;;;15.33;15.33;;;;;;;;5079828;27;45438;-79
2022/05/09 12:31:35;;;;;;;;;14.67;14.67;;;;;;;;5088729;27;45531;-79
2022/05/09 12:34:01;;;;;;;;;14.67;14.67;;;;;;;;5091748;27;45473;-78
2022/05/09 12:36:34;;;;;;;;;16.67;16.00;;;;;;;;5094874;27;45503;-78
2022/05/09 12:39:07;;;;;;;;;16.33;15.00;;;;;;;;5083195;27;45351;-78
2022/05/09 12:41:41;;;;;;;;;14.33;14.00;;;;;;;;5081722;27;45244;-80
2022/05/09 12:44:15;;;;;;;;;16.67;16.67;;;;;;;;5079503;27;45678;-78
2022/05/09 12:46:45;;;;;;;;;17.00;16.67;;;;;;;;5080617;27;45449;-79
2022/05/09 12:49:11;;;;;;;;;16.33;16.33;;;;;;;;5088065;27;45377;-79
2022/05/09 12:51:42;;;;;;;;;15.67;15.00;;;;;;;;5099686;27;45266;-79
2022/05/09 12:54:12;;;;;;;;;16.33;16.33;;;;;;;;5097296;27;46690;-79
2022/05/09 12:56:45;;;;;;;;;14.67;13.67;;;;;;;;5085692;27;45294;-79
2022/05/09 12:59:11;;;;;;;;;14.00;14.00;;;;;;;;5088852;27;45297;-78
2022/05/09 13:01:41;;;;;;;;;17.33;16.33;;;;;;;;5099560;27;45340;-79
2022/05/09 13:04:19;;;;;;;;;15.00;15.00;;;;;;;;5092550;27;46641;-78
2022/05/09 13:06:46;;;;;;;;;15.33;15.33;;;;;;;;5085229;27;45516;-78
2022/05/09 13:09:23;;;;;;;;;16.00;14.00;;;;;;;;5102147;27;45244;-77
2022/05/09 13:11:50;;;;;;;;;14.67;13.33;;;;;;;;5089116;27;45286;-78
2022/05/09 13:14:18;;;;;;;;;14.67;14.00;;;;;;;;5080379;28;46614;-78
2022/05/09 13:16:51;;;;;;;;;16.67;15.33;;;;;;;;5115680;27;47187;-78
2022/05/09 13:19:16;;;;;;;;;13.67;12.67;;;;;;;;5119963;27;45330;-78
2022/05/09 13:21:42;;;;;;;;;15.67;15.00;;;;;;;;5121010;27;45351;-78
2022/05/09 13:24:13;;;;;;;;;14.00;14.00;;;;;;;;5122964;27;45584;-78
2022/05/09 13:26:45;;;;;;;;;14.67;14.67;;;;;;;;5120062;27;47129;-78
2022/05/09 13:29:10;;;;;;;;;16.67;16.00;;;;;;;;5115799;27;45379;-78
2022/05/09 13:31:39;;;;;;;;;15.00;14.00;;;;;;;;5079845;27;45439;-77
2022/05/09 13:34:04;;;;;;;;;28.67;26.33;;;;;;;;5078942;28;47044;-78
2022/05/09 13:36:36;;;;;;;;;24.67;22.67;;;;;;;;5078787;28;46612;-78
2022/05/09 13:39:01;;;;;;;;;16.33;16.33;;;;;;;;5080134;28;45295;-78
2022/05/09 13:41:28;;;;;;;;;16.00;16.00;;;;;;;;5080826;27;45261;-78
2022/05/09 13:43:54;;;;;;;;;17.00;17.00;;;;;;;;5079629;28;46074;-78
2022/05/09 13:46:27;;;;;;;;;14.00;14.00;;;;;;;;5079167;28;46861;-78
2022/05/09 13:48:54;;;;;;;;;17.33;17.33;;;;;;;;5097227;27;45561;-77
2022/05/09 13:51:28;;;;;;;;;17.33;15.33;;;;;;;;5098858;27;45368;-79
2022/05/09 13:53:53;;;;;;;;;15.00;15.00;;;;;;;;5098809;27;45771;-78
2022/05/09 13:56:22;;;;;;;;;16.00;16.00;;;;;;;;5099779;27;45192;-78
2022/05/09 13:58:47;;;;;;;;;17.33;15.67;;;;;;;;5100080;27;45368;-77
2022/05/09 14:01:15;;;;;;;;;15.00;15.00;;;;;;;;5099957;27;45346;-77
2022/05/09 14:03:42;;;;;;;;;15.67;15.67;;;;;;;;5100158;27;45274;-77
2022/05/09 14:06:09;;;;;;;;;17.00;15.00;;;;;;;;5079907;27;45223;-78
2022/05/09 14:08:35;;;;;;;;;16.33;15.67;;;;;;;;5080549;27;45760;-79
2022/05/09 14:11:03;;;;;;;;;17.33;17.33;;;;;;;;5081658;27;45645;-78
2022/05/09 14:13:44;;;;;;;;;16.67;16.33;;;;;;;;5081461;27;45447;-78
2022/05/09 14:16:16;;;;;;;;;14.00;13.67;;;;;;;;5086862;27;45487;-78
2022/05/09 14:18:42;;;;;;;;;15.00;15.00;;;;;;;;5083630;27;45258;-77
2022/05/09 14:21:18;;;;;;;;;17.67;16.33;;;;;;;;5083301;27;45311;-78
2022/05/09 14:23:50;;;;;;;;;14.33;14.33;;;;;;;;5081948;27;46184;-78
2022/05/09 14:31:54;;;;;;;;;14.00;14.00;;;;;;;;5084458;27;45553;-77
2022/05/09 14:34:20;;;;;;;;;12.67;12.33;;;;;;;;5087605;27;47033;-77
2022/05/09 14:36:45;;;;;;;;;17.67;15.33;;;;;;;;5095509;27;45387;-77
2022/05/09 14:39:25;;;;;;;;;15.00;14.00;;;;;;;;5105148;27;45285;-77
2022/05/09 14:41:50;;;;;;;;;13.00;13.00;;;;;;;;5106804;27;45475;-77
2022/05/09 14:44:15;;;;;;;;;15.33;14.33;;;;;;;;5106770;27;45656;-78